Time;durP1;ratioP1;P1;durP2;ratioP2;P2;SDS_P1;SDS_P2;PMS_P1;PMS_P2;Temp;Humidity;BMP_temperature;BMP_pressure;BME280_temperature;BME280_humidity;BME280_pressure;Samples;Min_cycle;Max_cycle;Signal;HPM_P1;HPM_P2
2021/09/01 00:01:39;;;;;;;12.88;6.07;;;;;;;;;;5076875;28;20082;-72
2021/09/01 00:04:05;;;;;;;10.27;5.70;;;;;;;;;;5076311;28;20029;-72
2021/09/01 00:06:31;;;;;;;13.68;5.68;;;;;;;;;;5075976;28;20052;-72
2021/09/01 00:08:57;;;;;;;8.90;5.30;;;;;;;;;;5076215;28;20023;-72
2021/09/01 00:11:23;;;;;;;10.68;5.65;;;;;;;;;;5076131;28;20020;-71
2021/09/01 00:13:49;;;;;;;13.07;5.95;;;;;;;;;;5076410;28;20074;-72
2021/09/01 00:16:28;;;;;;;8.43;4.97;;;;;;;;;;5076103;28;20059;-71
2021/09/01 00:18:55;;;;;;;13.35;6.25;;;;;;;;;;5076670;28;20017;-71
2021/09/01 00:21:22;;;;;;;12.10;6.38;;;;;;;;;;5076283;28;20028;-72
2021/09/01 00:23:48;;;;;;;14.25;5.60;;;;;;;;;;5074736;28;20021;-72
2021/09/01 00:26:14;;;;;;;10.15;5.55;;;;;;;;;;5074677;28;20114;-71
2021/09/01 00:28:40;;;;;;;9.20;5.80;;;;;;;;;;5075789;28;20474;-71
2021/09/01 00:31:06;;;;;;;12.13;5.38;;;;;;;;;;5075861;28;20035;-71
2021/09/01 00:33:32;;;;;;;8.77;5.25;;;;;;;;;;5076083;28;20020;-71
2021/09/01 00:35:58;;;;;;;9.65;5.72;;;;;;;;;;5076031;28;20028;-70
2021/09/01 00:38:24;;;;;;;10.40;5.15;;;;;;;;;;5075715;28;20028;-71
2021/09/01 00:40:50;;;;;;;11.60;5.93;;;;;;;;;;5075659;28;20024;-71
2021/09/01 00:43:16;;;;;;;11.38;5.75;;;;;;;;;;5075884;28;20385;-71
2021/09/01 00:45:46;;;;;;;10.35;5.25;;;;;;;;;;5074322;28;20082;-70
2021/09/01 00:48:12;;;;;;;10.77;5.13;;;;;;;;;;5075749;28;20025;-71
2021/09/01 00:50:38;;;;;;;12.10;5.68;;;;;;;;;;5074194;28;20021;-72
2021/09/01 00:53:04;;;;;;;8.48;5.28;;;;;;;;;;5074163;28;20069;-71
2021/09/01 00:55:30;;;;;;;11.20;5.43;;;;;;;;;;5075655;28;20028;-71
2021/09/01 00:57:56;;;;;;;10.50;5.63;;;;;;;;;;5075302;28;20540;-70
2021/09/01 01:00:42;;;;;;;10.30;5.40;;;;;;;;;;5075287;28;20036;-72
2021/09/01 01:03:08;;;;;;;9.52;5.53;;;;;;;;;;5075834;28;20024;-71
2021/09/01 01:05:34;;;;;;;12.20;6.00;;;;;;;;;;5075450;28;20386;-71
2021/09/01 01:08:00;;;;;;;10.10;5.75;;;;;;;;;;5074928;28;20491;-71
2021/09/01 01:10:26;;;;;;;10.43;5.80;;;;;;;;;;5075083;28;20035;-71
2021/09/01 01:12:52;;;;;;;11.45;6.18;;;;;;;;;;5073801;28;20017;-72
2021/09/01 01:15:18;;;;;;;12.00;5.70;;;;;;;;;;5074992;28;20026;-72
2021/09/01 01:17:44;;;;;;;9.30;5.60;;;;;;;;;;5075191;28;20032;-73
2021/09/01 01:20:10;;;;;;;10.73;5.78;;;;;;;;;;5074902;28;20028;-71
2021/09/01 01:22:36;;;;;;;11.88;5.60;;;;;;;;;;5075351;28;20425;-70
2021/09/01 01:25:02;;;;;;;11.50;6.00;;;;;;;;;;5074777;28;20043;-72
2021/09/01 01:27:36;;;;;;;10.55;5.82;;;;;;;;;;5074717;28;20025;-72
2021/09/01 01:30:08;;;;;;;11.18;5.43;;;;;;;;;;5074727;28;20488;-71
2021/09/01 01:32:34;;;;;;;9.77;5.88;;;;;;;;;;5074964;28;20024;-72
2021/09/01 01:35:00;;;;;;;11.00;5.40;;;;;;;;;;5074877;28;20031;-72
2021/09/01 01:37:27;;;;;;;14.18;5.85;;;;;;;;;;5074536;28;20024;-71
2021/09/01 01:39:53;;;;;;;12.18;5.93;;;;;;;;;;5074532;28;20064;-71
2021/09/01 01:42:19;;;;;;;9.05;5.88;;;;;;;;;;5074487;28;20448;-71
2021/09/01 01:44:45;;;;;;;12.40;6.03;;;;;;;;;;5073130;28;20032;-72
2021/09/01 01:47:11;;;;;;;8.55;5.38;;;;;;;;;;5072984;28;20394;-71
2021/09/01 01:49:37;;;;;;;10.70;5.63;;;;;;;;;;5074328;28;20423;-70
2021/09/01 01:52:03;;;;;;;11.65;6.22;;;;;;;;;;5074223;28;20586;-71
2021/09/01 01:54:29;;;;;;;10.52;5.30;;;;;;;;;;5074475;28;20017;-71
2021/09/01 01:56:55;;;;;;;9.23;5.43;;;;;;;;;;5074180;28;20151;-71
2021/09/01 01:59:21;;;;;;;12.65;6.15;;;;;;;;;;5074108;28;20051;-72
2021/09/01 02:01:47;;;;;;;11.60;6.47;;;;;;;;;;5074097;28;20432;-71
2021/09/01 02:04:13;;;;;;;9.60;5.88;;;;;;;;;;5074039;28;20059;-71
2021/09/01 02:06:39;;;;;;;11.23;5.93;;;;;;;;;;5073686;28;20498;-72
2021/09/01 02:09:05;;;;;;;11.10;5.72;;;;;;;;;;5073927;28;20029;-71
2021/09/01 02:11:31;;;;;;;9.82;5.40;;;;;;;;;;5074154;28;20093;-71
2021/09/01 02:13:57;;;;;;;10.32;6.13;;;;;;;;;;5074130;28;20025;-72
2021/09/01 02:16:23;;;;;;;18.48;6.63;;;;;;;;;;5073823;28;20017;-72
2021/09/01 02:18:49;;;;;;;8.80;5.40;;;;;;;;;;5073076;28;20067;-71
2021/09/01 02:21:15;;;;;;;12.75;6.30;;;;;;;;;;5073754;28;20020;-71
2021/09/01 02:23:41;;;;;;;11.57;5.85;;;;;;;;;;5073972;28;20024;-70
2021/09/01 02:26:07;;;;;;;10.23;5.53;;;;;;;;;;5073902;28;20032;-71
2021/09/01 02:28:33;;;;;;;13.07;6.75;;;;;;;;;;5073527;28;20478;-70
2021/09/01 02:30:59;;;;;;;9.55;5.30;;;;;;;;;;5073582;28;20023;-71
2021/09/01 02:33:25;;;;;;;10.13;5.32;;;;;;;;;;5073840;28;20028;-72
2021/09/01 02:35:51;;;;;;;10.77;6.18;;;;;;;;;;5073791;28;20497;-71
2021/09/01 02:38:17;;;;;;;10.82;5.70;;;;;;;;;;5074009;28;20029;-70
2021/09/01 02:40:43;;;;;;;11.00;5.15;;;;;;;;;;5073683;28;20028;-71
2021/09/01 02:43:09;;;;;;;9.82;5.38;;;;;;;;;;5073410;28;20035;-71
2021/09/01 02:45:35;;;;;;;10.05;5.68;;;;;;;;;;5073368;28;20059;-73
2021/09/01 02:48:01;;;;;;;9.32;5.65;;;;;;;;;;5073551;28;20032;-71
2021/09/01 02:50:27;;;;;;;7.97;5.32;;;;;;;;;;5073591;28;20017;-71
2021/09/01 02:52:54;;;;;;;9.20;5.28;;;;;;;;;;5073253;28;20029;-71
2021/09/01 02:55:19;;;;;;;9.02;5.43;;;;;;;;;;5073816;28;20024;-71
2021/09/01 02:57:46;;;;;;;8.80;5.43;;;;;;;;;;5073445;28;20073;-71
2021/09/01 03:00:12;;;;;;;10.13;5.53;;;;;;;;;;5071933;28;20028;-72
2021/09/01 03:02:38;;;;;;;11.80;5.95;;;;;;;;;;5073222;28;20600;-73
2021/09/01 03:05:05;;;;;;;10.10;6.22;;;;;;;;;;5073135;28;20103;-70
2021/09/01 03:07:31;;;;;;;9.70;6.25;;;;;;;;;;5071536;28;20411;-71
2021/09/01 03:09:57;;;;;;;10.27;5.50;;;;;;;;;;5073114;28;20024;-71
2021/09/01 03:12:23;;;;;;;9.68;4.95;;;;;;;;;;5073353;28;20103;-72
2021/09/01 03:14:49;;;;;;;8.80;5.10;;;;;;;;;;5073098;28;20019;-71
2021/09/01 03:17:15;;;;;;;10.45;5.43;;;;;;;;;;5073054;28;20409;-71
2021/09/01 03:19:41;;;;;;;8.60;5.15;;;;;;;;;;5073053;28;20039;-72
2021/09/01 03:22:07;;;;;;;8.70;5.20;;;;;;;;;;5073320;28;20062;-71
2021/09/01 03:24:33;;;;;;;10.98;5.63;;;;;;;;;;5072978;28;20025;-71
2021/09/01 03:26:59;;;;;;;7.57;5.07;;;;;;;;;;5073460;28;20066;-72
2021/09/01 03:29:29;;;;;;;8.43;5.57;;;;;;;;;;5072394;28;20104;-71
2021/09/01 03:31:55;;;;;;;10.85;5.85;;;;;;;;;;5076331;28;20024;-71
2021/09/01 03:34:21;;;;;;;11.48;5.72;;;;;;;;;;5076935;28;20020;-71
2021/09/01 03:36:47;;;;;;;8.98;5.60;;;;;;;;;;5076873;28;20421;-73
2021/09/01 03:39:13;;;;;;;9.57;5.80;;;;;;;;;;5076841;28;20032;-71
2021/09/01 03:41:39;;;;;;;12.00;5.88;;;;;;;;;;5077032;28;20090;-71
2021/09/01 03:44:05;;;;;;;9.60;5.72;;;;;;;;;;5076786;28;20089;-71
2021/09/01 03:46:31;;;;;;;13.07;6.18;;;;;;;;;;5076961;28;20025;-72
2021/09/01 03:48:57;;;;;;;13.95;6.10;;;;;;;;;;5076560;28;20475;-71
2021/09/01 03:51:23;;;;;;;13.20;6.10;;;;;;;;;;5077101;28;20028;-71
2021/09/01 03:53:49;;;;;;;8.65;5.50;;;;;;;;;;5076824;28;20023;-72
2021/09/01 03:56:15;;;;;;;9.13;5.78;;;;;;;;;;5076779;28;20104;-72
2021/09/01 03:58:41;;;;;;;9.38;5.85;;;;;;;;;;5076543;28;20540;-72
2021/09/01 04:01:07;;;;;;;8.95;5.13;;;;;;;;;;5076425;28;20039;-71
2021/09/01 04:03:33;;;;;;;10.00;5.25;;;;;;;;;;5076636;28;20032;-72
2021/09/01 04:05:59;;;;;;;8.50;5.47;;;;;;;;;;5076110;28;20041;-72
2021/09/01 04:08:25;;;;;;;9.52;5.18;;;;;;;;;;5076199;28;20029;-71
2021/09/01 04:10:51;;;;;;;7.13;4.57;;;;;;;;;;5076506;28;20027;-71
2021/09/01 04:13:17;;;;;;;6.70;4.65;;;;;;;;;;5076446;28;20091;-71
2021/09/01 04:15:43;;;;;;;6.00;4.40;;;;;;;;;;5076123;28;20500;-69
2021/09/01 04:18:09;;;;;;;6.93;4.30;;;;;;;;;;5074786;28;20055;-72
2021/09/01 04:20:35;;;;;;;6.15;4.03;;;;;;;;;;5074738;28;20398;-72
2021/09/01 04:23:02;;;;;;;8.27;4.97;;;;;;;;;;5075988;28;20027;-71
2021/09/01 04:25:28;;;;;;;7.90;5.05;;;;;;;;;;5076261;28;20103;-72
2021/09/01 04:27:55;;;;;;;9.23;5.30;;;;;;;;;;5076112;28;20432;-72
2021/09/01 04:30:21;;;;;;;7.70;4.60;;;;;;;;;;5074565;28;20028;-71
2021/09/01 04:32:47;;;;;;;6.53;4.30;;;;;;;;;;5075850;28;20355;-71
2021/09/01 04:35:13;;;;;;;6.32;4.35;;;;;;;;;;5076076;28;20474;-73
2021/09/01 04:37:39;;;;;;;9.90;4.78;;;;;;;;;;5075723;28;20025;-71
2021/09/01 04:40:06;;;;;;;6.65;4.55;;;;;;;;;;5076002;28;20029;-71
2021/09/01 04:42:32;;;;;;;7.15;4.75;;;;;;;;;;5073462;28;20390;-71
2021/09/01 04:44:58;;;;;;;7.95;5.00;;;;;;;;;;5075591;28;20551;-73
2021/09/01 04:47:24;;;;;;;7.32;5.00;;;;;;;;;;5075459;28;20107;-71
2021/09/01 04:49:50;;;;;;;7.82;5.10;;;;;;;;;;5075834;28;20090;-71
2021/09/01 04:52:16;;;;;;;9.32;5.63;;;;;;;;;;5075521;28;20021;-72
2021/09/01 04:54:42;;;;;;;7.53;4.57;;;;;;;;;;5075744;28;20024;-71
2021/09/01 04:57:08;;;;;;;8.80;5.63;;;;;;;;;;5075387;28;20024;-71
2021/09/01 04:59:34;;;;;;;8.57;5.45;;;;;;;;;;5075268;28;20104;-71
2021/09/01 05:02:00;;;;;;;10.35;5.95;;;;;;;;;;5075287;28;20454;-71
2021/09/01 05:04:26;;;;;;;9.80;5.70;;;;;;;;;;5075515;28;20470;-71
2021/09/01 05:06:52;;;;;;;9.15;5.32;;;;;;;;;;5074890;28;20066;-71
2021/09/01 05:09:18;;;;;;;11.57;6.18;;;;;;;;;;5075135;28;20020;-72
2021/09/01 05:11:44;;;;;;;8.50;5.60;;;;;;;;;;5075092;28;20025;-72
2021/09/01 05:14:10;;;;;;;8.38;4.93;;;;;;;;;;5075041;28;20078;-70
2021/09/01 05:16:36;;;;;;;9.55;5.53;;;;;;;;;;5075292;28;20099;-72
2021/09/01 05:19:02;;;;;;;8.90;5.60;;;;;;;;;;5075246;28;20033;-71
2021/09/01 05:21:30;;;;;;;9.02;5.68;;;;;;;;;;5074927;28;20028;-72
2021/09/01 05:23:56;;;;;;;8.65;5.00;;;;;;;;;;5074842;28;20151;-73
2021/09/01 05:26:24;;;;;;;8.65;6.13;;;;;;;;;;5074849;28;20068;-72
2021/09/01 05:28:50;;;;;;;10.65;6.60;;;;;;;;;;5074665;28;20024;-71
2021/09/01 05:31:17;;;;;;;11.95;7.13;;;;;;;;;;5074696;28;20022;-72
2021/09/01 05:33:44;;;;;;;11.90;7.18;;;;;;;;;;5074640;28;20028;-72
2021/09/01 05:36:11;;;;;;;10.23;6.53;;;;;;;;;;5074597;28;20074;-71
2021/09/01 05:38:38;;;;;;;9.65;5.80;;;;;;;;;;5075103;28;20112;-71
2021/09/01 05:41:04;;;;;;;11.18;6.32;;;;;;;;;;5074550;28;20033;-71
2021/09/01 05:43:30;;;;;;;10.65;6.63;;;;;;;;;;5074498;28;20420;-73
2021/09/01 05:45:56;;;;;;;10.80;5.85;;;;;;;;;;5074452;28;20141;-71
2021/09/01 05:48:23;;;;;;;10.95;6.63;;;;;;;;;;5074510;28;20043;-72
2021/09/01 05:50:53;;;;;;;10.52;6.03;;;;;;;;;;5074600;28;20061;-70
2021/09/01 05:53:19;;;;;;;8.32;5.45;;;;;;;;;;5074887;28;20028;-74
2021/09/01 05:55:48;;;;;;;9.55;5.65;;;;;;;;;;5074514;28;20037;-73
2021/09/01 05:58:15;;;;;;;10.80;6.00;;;;;;;;;;5074120;28;20120;-74
2021/09/01 06:00:42;;;;;;;12.00;7.50;;;;;;;;;;5074134;28;20115;-71
2021/09/01 06:03:08;;;;;;;13.05;7.53;;;;;;;;;;5074111;28;20028;-72
2021/09/01 06:05:37;;;;;;;15.27;8.25;;;;;;;;;;5074026;28;20024;-71
2021/09/01 06:08:03;;;;;;;10.50;6.13;;;;;;;;;;5073984;28;20177;-71
2021/09/01 06:10:31;;;;;;;10.52;5.85;;;;;;;;;;5074473;28;20027;-71
2021/09/01 06:13:01;;;;;;;9.82;5.90;;;;;;;;;;5074443;28;20470;-71
2021/09/01 06:15:27;;;;;;;;;;;;;;;;;;5074597;28;20036;-71
2021/09/01 06:17:53;;;;;;;14.00;8.27;;;;;;;;;;5073873;28;19908;-72
2021/09/01 06:20:19;;;;;;;20.05;10.70;;;;;;;;;;5074024;28;20024;-72
2021/09/01 06:22:46;;;;;;;18.35;9.43;;;;;;;;;;5073736;28;20028;-71
2021/09/01 06:25:12;;;;;;;19.88;11.63;;;;;;;;;;5073650;28;20025;-73
2021/09/01 06:27:38;;;;;;;18.40;11.07;;;;;;;;;;5073818;28;20104;-71
2021/09/01 06:30:05;;;;;;;20.23;11.43;;;;;;;;;;5073868;28;20537;-71
2021/09/01 06:32:31;;;;;;;21.33;12.50;;;;;;;;;;5074098;28;20032;-72
2021/09/01 06:34:57;;;;;;;21.73;12.43;;;;;;;;;;5073351;28;20100;-71
2021/09/01 06:37:23;;;;;;;18.52;12.48;;;;;;;;;;5072198;28;20466;-72
2021/09/01 06:39:51;;;;;;;20.25;12.18;;;;;;;;;;5072276;28;20029;-71
2021/09/01 06:42:18;;;;;;;21.50;13.07;;;;;;;;;;5073478;28;20028;-72
2021/09/01 06:44:44;;;;;;;19.80;11.95;;;;;;;;;;5073428;28;20028;-72
2021/09/01 06:47:10;;;;;;;18.25;12.50;;;;;;;;;;5073575;28;20028;-72
2021/09/01 06:49:36;;;;;;;18.48;12.43;;;;;;;;;;5073630;28;20021;-71
2021/09/01 06:52:02;;;;;;;21.35;12.82;;;;;;;;;;5073313;28;20032;-71
2021/09/01 06:54:28;;;;;;;19.85;12.57;;;;;;;;;;5073223;28;20364;-71
2021/09/01 06:56:54;;;;;;;20.27;14.07;;;;;;;;;;5073273;28;20025;-71
2021/09/01 06:59:20;;;;;;;20.20;13.73;;;;;;;;;;5073244;28;20024;-71
2021/09/01 07:01:46;;;;;;;20.85;14.05;;;;;;;;;;5073456;28;20027;-71
2021/09/01 07:04:12;;;;;;;23.23;12.50;;;;;;;;;;5073009;28;20017;-71
2021/09/01 07:06:38;;;;;;;21.88;13.15;;;;;;;;;;5073111;28;20052;-70
2021/09/01 07:09:04;;;;;;;20.58;13.68;;;;;;;;;;5073363;28;20028;-71
2021/09/01 07:11:30;;;;;;;19.17;13.20;;;;;;;;;;5073138;28;20438;-70
2021/09/01 07:13:56;;;;;;;21.48;14.10;;;;;;;;;;5073127;28;20021;-72
2021/09/01 07:16:22;;;;;;;25.42;15.10;;;;;;;;;;5071789;28;20070;-71
2021/09/01 07:18:48;;;;;;;18.80;13.50;;;;;;;;;;5073603;28;20024;-71
2021/09/01 07:21:14;;;;;;;21.73;14.18;;;;;;;;;;5073007;28;20567;-71
2021/09/01 07:23:40;;;;;;;21.30;15.18;;;;;;;;;;5073060;28;20020;-71
2021/09/01 07:26:10;;;;;;;18.98;13.40;;;;;;;;;;5072930;28;20024;-72
2021/09/01 07:28:37;;;;;;;23.73;15.00;;;;;;;;;;5072939;28;20016;-72
2021/09/01 07:31:04;;;;;;;23.80;14.32;;;;;;;;;;5072951;28;20035;-71
2021/09/01 07:33:29;;;;;;;20.30;13.52;;;;;;;;;;5071638;28;20107;-71
2021/09/01 07:35:55;;;;;;;20.60;14.52;;;;;;;;;;5073128;28;20075;-72
2021/09/01 07:38:21;;;;;;;21.92;14.80;;;;;;;;;;5073090;28;20028;-71
2021/09/01 07:40:47;;;;;;;23.67;14.00;;;;;;;;;;5072771;28;20028;-71
2021/09/01 07:43:14;;;;;;;20.58;14.48;;;;;;;;;;5073071;28;20131;-72
2021/09/01 07:45:42;;;;;;;21.55;14.82;;;;;;;;;;5071467;28;20032;-71
2021/09/01 07:48:08;;;;;;;20.60;14.38;;;;;;;;;;5073038;28;20090;-71
2021/09/01 07:50:34;;;;;;;23.35;15.32;;;;;;;;;;5072989;28;20059;-72
2021/09/01 07:53:01;;;;;;;21.50;15.23;;;;;;;;;;5072981;28;20021;-71
2021/09/01 07:55:27;;;;;;;24.95;14.73;;;;;;;;;;5072701;28;20021;-70
2021/09/01 07:57:53;;;;;;;20.58;14.73;;;;;;;;;;5072938;28;20029;-71
2021/09/01 08:00:19;;;;;;;25.65;15.85;;;;;;;;;;5072280;28;20061;-71
2021/09/01 08:02:45;;;;;;;24.05;15.38;;;;;;;;;;5072462;28;20028;-71
2021/09/01 08:05:11;;;;;;;22.25;15.68;;;;;;;;;;5072208;28;20025;-71
2021/09/01 08:07:38;;;;;;;23.35;16.15;;;;;;;;;;5071973;28;20506;-72
2021/09/01 08:10:05;;;;;;;23.45;16.55;;;;;;;;;;5071726;28;20032;-71
2021/09/01 08:12:31;;;;;;;26.85;16.65;;;;;;;;;;5071596;28;20052;-71
2021/09/01 08:14:57;;;;;;;24.65;17.02;;;;;;;;;;5072787;28;20482;-71
2021/09/01 08:17:23;;;;;;;24.67;16.17;;;;;;;;;;5074621;28;20029;-71
2021/09/01 08:19:49;;;;;;;21.58;16.05;;;;;;;;;;5076073;28;20102;-71
2021/09/01 08:22:15;;;;;;;25.75;17.02;;;;;;;;;;5076015;28;20032;-71
2021/09/01 08:24:43;;;;;;;23.20;15.48;;;;;;;;;;5075443;28;20038;-72
2021/09/01 08:27:10;;;;;;;23.38;16.10;;;;;;;;;;5073685;28;20437;-71
2021/09/01 08:29:36;;;;;;;20.05;15.32;;;;;;;;;;5075899;28;20024;-71
2021/09/01 08:32:02;;;;;;;27.13;16.60;;;;;;;;;;5075901;28;20502;-70
2021/09/01 08:34:28;;;;;;;24.60;16.30;;;;;;;;;;5076100;28;20024;-71
2021/09/01 08:36:54;;;;;;;23.05;16.35;;;;;;;;;;5075760;28;20021;-71
2021/09/01 08:39:20;;;;;;;25.48;16.67;;;;;;;;;;5075714;28;20078;-71
2021/09/01 08:41:47;;;;;;;25.58;16.60;;;;;;;;;;5075943;28;20028;-71
2021/09/01 08:44:13;;;;;;;24.80;16.80;;;;;;;;;;5075634;28;20032;-71
2021/09/01 08:46:40;;;;;;;23.25;16.83;;;;;;;;;;5075625;28;20100;-71
2021/09/01 08:49:06;;;;;;;21.75;14.75;;;;;;;;;;5075525;28;20028;-72
2021/09/01 08:51:32;;;;;;;22.58;16.85;;;;;;;;;;5075488;28;20090;-71
2021/09/01 08:53:59;;;;;;;19.58;15.50;;;;;;;;;;5075441;28;20474;-71
2021/09/01 08:56:28;;;;;;;23.70;15.63;;;;;;;;;;5075416;28;20024;-71
2021/09/01 08:58:54;;;;;;;21.40;14.80;;;;;;;;;;5075319;28;20032;-71
2021/09/01 09:01:39;;;;;;;19.30;14.43;;;;;;;;;;5075328;28;20483;-71
2021/09/01 09:04:06;;;;;;;19.35;14.52;;;;;;;;;;5075846;28;20039;-71
2021/09/01 09:06:45;;;;;;;18.85;13.65;;;;;;;;;;5075044;28;20080;-71
2021/09/01 09:09:11;;;;;;;19.85;13.80;;;;;;;;;;5075698;28;20115;-72
2021/09/01 09:11:37;;;;;;;21.73;14.18;;;;;;;;;;5075148;28;20017;-71
2021/09/01 09:14:26;;;;;;;19.38;13.65;;;;;;;;;;5075074;28;20085;-72
2021/09/01 09:17:00;;;;;;;23.08;14.48;;;;;;;;;;5075627;28;20017;-71
2021/09/01 09:19:47;;;;;;;19.92;14.07;;;;;;;;;;5074957;28;20029;-72
2021/09/01 09:22:14;;;;;;;17.92;14.25;;;;;;;;;;5074930;28;20021;-71
2021/09/01 09:24:40;;;;;;;21.60;14.70;;;;;;;;;;5075145;28;20035;-71
2021/09/01 09:27:07;;;;;;;17.52;13.35;;;;;;;;;;5074303;28;20078;-71
2021/09/01 09:29:33;;;;;;;21.85;14.55;;;;;;;;;;5075032;28;20040;-71
2021/09/01 09:32:00;;;;;;;16.90;12.48;;;;;;;;;;5074982;28;20027;-71
2021/09/01 09:34:37;;;;;;;19.05;13.82;;;;;;;;;;5074971;28;20020;-71
2021/09/01 09:37:08;;;;;;;21.35;13.90;;;;;;;;;;5073430;28;20052;-71
2021/09/01 09:39:38;;;;;;;18.15;13.07;;;;;;;;;;5074640;28;20032;-71
2021/09/01 09:42:04;;;;;;;18.50;13.13;;;;;;;;;;5074551;28;20501;-72
2021/09/01 09:44:30;;;;;;;18.73;12.88;;;;;;;;;;5074760;28;20032;-72
2021/09/01 09:46:56;;;;;;;19.90;12.45;;;;;;;;;;5074356;28;20021;-73
2021/09/01 09:49:29;;;;;;;15.45;11.93;;;;;;;;;;5074365;28;20021;-72
2021/09/01 09:51:55;;;;;;;19.83;13.45;;;;;;;;;;5074881;28;20017;-73
2021/09/01 09:54:23;;;;;;;19.35;12.57;;;;;;;;;;5074242;28;20069;-73
2021/09/01 09:56:50;;;;;;;18.42;12.98;;;;;;;;;;5074230;28;20021;-73
2021/09/01 09:59:17;;;;;;;20.02;13.00;;;;;;;;;;5074047;28;20056;-72
2021/09/01 10:01:44;;;;;;;21.63;13.20;;;;;;;;;;5074403;28;20482;-73
2021/09/01 10:04:10;;;;;;;18.63;12.77;;;;;;;;;;5074386;28;20025;-74
2021/09/01 10:06:36;;;;;;;19.33;12.85;;;;;;;;;;5073835;28;20045;-73
2021/09/01 10:09:04;;;;;;;19.83;13.95;;;;;;;;;;5073959;28;20082;-74
2021/09/01 10:11:30;;;;;;;22.23;14.30;;;;;;;;;;5073934;28;20489;-73
2021/09/01 10:13:56;;;;;;;20.02;12.77;;;;;;;;;;5073918;28;20126;-76
2021/09/01 10:16:22;;;;;;;18.27;11.55;;;;;;;;;;5074115;28;20474;-73
2021/09/01 10:18:51;;;;;;;17.65;11.25;;;;;;;;;;5073854;28;20024;-73
2021/09/01 10:21:18;;;;;;;15.68;10.88;;;;;;;;;;5073749;28;20082;-74
2021/09/01 10:23:45;;;;;;;20.65;11.63;;;;;;;;;;5073683;28;20032;-74
2021/09/01 10:26:21;;;;;;;16.15;11.75;;;;;;;;;;5073645;28;20543;-73
2021/09/01 10:28:47;;;;;;;16.90;11.73;;;;;;;;;;5073535;28;20074;-73
2021/09/01 10:31:16;;;;;;;18.50;11.07;;;;;;;;;;5073843;28;20028;-73
2021/09/01 10:33:46;;;;;;;15.82;10.55;;;;;;;;;;5072318;28;20039;-74
2021/09/01 10:36:24;;;;;;;15.20;10.88;;;;;;;;;;5074104;28;20078;-73
2021/09/01 10:38:50;;;;;;;14.85;10.10;;;;;;;;;;5073036;28;20032;-73
2021/09/01 10:41:39;;;;;;;16.85;11.15;;;;;;;;;;5073316;28;20082;-73
2021/09/01 10:44:14;;;;;;;14.32;11.27;;;;;;;;;;5071888;28;20081;-74
2021/09/01 10:46:52;;;;;;;15.95;11.07;;;;;;;;;;5073639;28;20031;-73
2021/09/01 10:49:19;;;;;;;14.43;10.27;;;;;;;;;;5073384;28;20470;-73
2021/09/01 10:51:50;;;;;;;17.17;11.23;;;;;;;;;;5073542;28;20024;-73
2021/09/01 10:54:30;;;;;;;16.85;12.88;;;;;;;;;;5073559;28;20479;-74
2021/09/01 10:56:57;;;;;;;17.17;10.70;;;;;;;;;;5073829;28;20052;-73
2021/09/01 10:59:39;;;;;;;14.18;9.63;;;;;;;;;;5073155;28;20017;-74
2021/09/01 11:02:13;;;;;;;14.32;9.98;;;;;;;;;;5073498;28;20055;-73
2021/09/01 11:04:49;;;;;;;16.50;10.40;;;;;;;;;;5073741;28;20374;-73
2021/09/01 11:07:32;;;;;;;13.45;10.52;;;;;;;;;;5071424;28;20094;-75
2021/09/01 11:10:02;;;;;;;12.20;10.00;;;;;;;;;;5073400;28;20029;-74
2021/09/01 11:12:31;;;;;;;18.83;10.77;;;;;;;;;;5073325;28;20048;-74
2021/09/01 11:14:57;;;;;;;17.58;9.73;;;;;;;;;;5073059;28;20044;-73
2021/09/01 11:17:27;;;;;;;21.70;11.02;;;;;;;;;;5073336;28;20036;-73
2021/09/01 11:19:53;;;;;;;;;;;;;;;;;;5073464;28;20567;-73
2021/09/01 11:22:26;;;;;;;15.63;10.88;;;;;;;;;;5073622;28;19908;-73
2021/09/01 11:24:54;;;;;;;17.48;10.68;;;;;;;;;;5073060;28;20036;-74
2021/09/01 11:27:22;;;;;;;15.35;10.60;;;;;;;;;;5073166;28;20036;-73
2021/09/01 11:29:48;;;;;;;14.88;10.43;;;;;;;;;;5073006;28;20025;-73
2021/09/01 11:32:18;;;;;;;16.58;10.63;;;;;;;;;;5073173;28;20029;-74
2021/09/01 11:34:45;;;;;;;16.02;9.77;;;;;;;;;;5072881;28;20485;-74
2021/09/01 11:37:11;;;;;;;15.85;10.23;;;;;;;;;;5073125;28;20017;-73
2021/09/01 11:39:55;;;;;;;13.98;10.10;;;;;;;;;;5072860;28;20025;-73
2021/09/01 11:42:21;;;;;;;16.73;10.05;;;;;;;;;;5073425;28;20020;-73
2021/09/01 11:44:57;;;;;;;14.52;10.15;;;;;;;;;;5071487;28;20032;-73
2021/09/01 11:47:24;;;;;;;18.25;11.38;;;;;;;;;;5071435;28;20040;-73
2021/09/01 11:49:51;;;;;;;16.15;10.38;;;;;;;;;;5072730;28;20029;-73
2021/09/01 11:52:29;;;;;;;16.90;9.60;;;;;;;;;;5076746;28;20099;-73
2021/09/01 11:54:55;;;;;;;18.83;10.20;;;;;;;;;;5077179;28;20060;-74
2021/09/01 11:57:25;;;;;;;13.25;9.20;;;;;;;;;;5076534;28;20027;-73
2021/09/01 11:59:52;;;;;;;14.90;8.93;;;;;;;;;;5076740;28;20024;-73
2021/09/01 12:02:25;;;;;;;15.18;9.27;;;;;;;;;;5075148;28;20410;-73
2021/09/01 12:04:51;;;;;;;14.80;8.55;;;;;;;;;;5076715;28;20028;-73
2021/09/01 12:07:24;;;;;;;12.15;8.90;;;;;;;;;;5074766;28;20041;-73
2021/09/01 12:09:54;;;;;;;12.85;8.75;;;;;;;;;;5074602;28;20025;-73
2021/09/01 12:12:20;;;;;;;;;;;;;;;;;;5075239;28;20025;-73
2021/09/01 12:14:46;;;;;;;13.95;8.30;;;;;;;;;;5074734;28;19904;-74
2021/09/01 12:17:22;;;;;;;14.50;8.13;;;;;;;;;;5074980;28;20020;-73
2021/09/01 12:19:53;;;;;;;11.50;8.00;;;;;;;;;;5073690;28;20029;-74
2021/09/01 12:22:35;;;;;;;15.35;8.63;;;;;;;;;;5075062;28;20394;-74
2021/09/01 12:25:25;;;;;;;17.13;8.98;;;;;;;;;;5076623;28;20408;-74
2021/09/01 12:28:10;;;;;;;15.45;8.95;;;;;;;;;;5062078;28;20454;-74
2021/09/01 12:30:40;;;;;;;12.50;8.15;;;;;;;;;;5076545;28;20108;-73
2021/09/01 12:33:10;;;;;;;14.60;8.27;;;;;;;;;;5075907;28;20021;-74
2021/09/01 12:35:36;;;;;;;13.60;8.57;;;;;;;;;;5076149;28;20021;-74
2021/09/01 12:38:04;;;;;;;13.52;8.10;;;;;;;;;;5074519;28;20028;-73
2021/09/01 12:40:31;;;;;;;13.95;8.43;;;;;;;;;;5074500;28;20605;-74
2021/09/01 12:42:58;;;;;;;13.82;9.32;;;;;;;;;;5075703;28;20074;-73
2021/09/01 12:45:25;;;;;;;11.93;7.30;;;;;;;;;;5075661;28;20058;-73
2021/09/01 12:47:52;;;;;;;14.20;8.27;;;;;;;;;;5074282;28;20052;-74
2021/09/01 12:50:18;;;;;;;12.05;8.02;;;;;;;;;;5075837;28;20546;-73
2021/09/01 12:52:44;;;;;;;13.32;7.82;;;;;;;;;;5075798;28;20028;-74
2021/09/01 12:55:10;;;;;;;14.25;9.00;;;;;;;;;;5074179;28;20032;-75
2021/09/01 12:57:36;;;;;;;16.35;8.10;;;;;;;;;;5075642;28;20123;-73
2021/09/01 13:00:03;;;;;;;14.15;7.80;;;;;;;;;;5075695;28;20516;-73
2021/09/01 13:02:30;;;;;;;13.10;8.23;;;;;;;;;;5074928;28;20020;-73
2021/09/01 13:04:57;;;;;;;14.10;8.95;;;;;;;;;;5074025;28;20399;-75
2021/09/01 13:07:23;;;;;;;16.27;8.93;;;;;;;;;;5075051;28;20117;-76
2021/09/01 13:09:49;;;;;;;12.48;7.63;;;;;;;;;;5075776;28;20024;-74
2021/09/01 13:12:15;;;;;;;13.20;7.90;;;;;;;;;;5075714;28;20351;-74
2021/09/01 13:14:41;;;;;;;14.75;8.60;;;;;;;;;;5075452;28;20020;-74
2021/09/01 13:17:08;;;;;;;13.82;7.95;;;;;;;;;;5075314;28;20027;-74
2021/09/01 13:19:35;;;;;;;12.55;7.82;;;;;;;;;;5075042;28;20047;-74
2021/09/01 13:22:01;;;;;;;11.85;8.30;;;;;;;;;;5075294;28;20021;-73
2021/09/01 13:24:27;;;;;;;13.95;8.45;;;;;;;;;;5073690;28;20020;-75
2021/09/01 13:26:53;;;;;;;12.15;8.05;;;;;;;;;;5074881;28;20539;-74
2021/09/01 13:29:19;;;;;;;13.52;8.23;;;;;;;;;;5074734;28;20029;-73
2021/09/01 13:31:46;;;;;;;14.48;8.25;;;;;;;;;;5075061;28;20025;-74
2021/09/01 13:34:12;;;;;;;11.93;8.10;;;;;;;;;;5075271;28;20020;-73
2021/09/01 13:36:38;;;;;;;15.57;8.13;;;;;;;;;;5074718;28;20082;-74
2021/09/01 13:39:05;;;;;;;14.02;8.25;;;;;;;;;;5074665;28;20021;-73
2021/09/01 13:41:32;;;;;;;16.63;8.10;;;;;;;;;;5073339;28;20032;-74
2021/09/01 13:43:58;;;;;;;14.93;8.57;;;;;;;;;;5074569;28;20073;-73
2021/09/01 13:46:27;;;;;;;15.20;8.57;;;;;;;;;;5074737;28;20466;-74
2021/09/01 13:48:53;;;;;;;11.98;8.52;;;;;;;;;;5074328;28;20016;-75
2021/09/01 13:51:19;;;;;;;13.57;8.77;;;;;;;;;;5074421;28;20025;-75
2021/09/01 13:53:46;;;;;;;17.52;8.57;;;;;;;;;;5074312;28;20024;-75
2021/09/01 13:56:13;;;;;;;13.63;8.85;;;;;;;;;;5074281;28;20021;-73
2021/09/01 13:58:39;;;;;;;11.05;7.72;;;;;;;;;;5074460;28;20024;-74
2021/09/01 14:01:05;;;;;;;12.63;7.55;;;;;;;;;;5074143;28;20024;-73
2021/09/01 14:03:32;;;;;;;13.43;7.57;;;;;;;;;;5074157;28;20436;-73
2021/09/01 14:05:59;;;;;;;13.00;8.48;;;;;;;;;;5073871;28;20103;-73
2021/09/01 14:08:25;;;;;;;13.18;7.35;;;;;;;;;;5074287;28;20028;-75
2021/09/01 14:10:51;;;;;;;13.27;8.25;;;;;;;;;;5074022;28;20020;-74
2021/09/01 14:13:17;;;;;;;13.35;7.75;;;;;;;;;;5073722;28;20051;-74
2021/09/01 14:15:43;;;;;;;10.68;7.82;;;;;;;;;;5073259;28;20029;-73
2021/09/01 14:18:09;;;;;;;13.95;8.68;;;;;;;;;;5074133;28;20021;-75
2021/09/01 14:20:35;;;;;;;13.80;8.43;;;;;;;;;;5073831;28;20056;-73
2021/09/01 14:23:02;;;;;;;11.88;7.88;;;;;;;;;;5074070;28;20052;-75
2021/09/01 14:25:28;;;;;;;12.98;8.45;;;;;;;;;;5073747;28;20025;-74
2021/09/01 14:27:54;;;;;;;12.50;7.40;;;;;;;;;;5073631;28;20033;-73
2021/09/01 14:30:20;;;;;;;13.40;8.15;;;;;;;;;;5073666;28;20031;-74